AMX6416 MGGT-MHTG
Flight info
| Callsign | AMX6416 |
|---|---|
| Flight time | 0h 45m |
| Altitude | 33000 |
| Route | VILDA2 LAGOX UA552 NAGEL DCT VITAN VITAN1A |
| Aircraft | B38M/M-SDE1FGHILORVWXY/HB1 |
Departure
| Time | 2026-05-09 01:55 |
|---|---|
| Airport | La Aurora International Airport (MGGT) |
Arrival
| Time | 2026-05-09 02:41 |
|---|---|
| Airport | Toncontín Airport (MHTG) |
| Time | Latitude | Longitude | Altitude | Speed | Heading |
|---|---|---|---|---|---|
| 2026-05-09 01:02 | 14.58826 | -90.52924 | 4922 ft | 0 kts | 287° |
| 2026-05-09 01:21 | 14.58822 | -90.52909 | 4950 ft | 4 kts | 287° |
| 2026-05-09 01:21 | 14.58816 | -90.52888 | 4949 ft | 4 kts | 293° |
| 2026-05-09 01:21 | 14.58802 | -90.52864 | 4948 ft | 4 kts | 305° |
| 2026-05-09 01:21 | 14.58791 | -90.52846 | 4950 ft | 4 kts | 292° |
| 2026-05-09 01:22 | 14.58787 | -90.52822 | 4947 ft | 3 kts | 266° |
| 2026-05-09 01:22 | 14.58785 | -90.52820 | 4948 ft | 4 kts | 217° |
| 2026-05-09 01:22 | 14.58763 | -90.52825 | 4948 ft | 2 kts | 17° |
| 2026-05-09 01:22 | 14.58739 | -90.52833 | 4948 ft | 4 kts | 17° |
| 2026-05-09 01:23 | 14.58729 | -90.52836 | 4948 ft | 2 kts | 17° |
| 2026-05-09 01:25 | 14.58741 | -90.52832 | 4946 ft | 4 kts | 18° |
| 2026-05-09 01:26 | 14.58768 | -90.52820 | 4947 ft | 2 kts | 27° |
| 2026-05-09 01:26 | 14.58775 | -90.52817 | 4947 ft | 0 kts | 22° |
| 2026-05-09 01:26 | 14.58787 | -90.52812 | 4947 ft | 0 kts | 20° |
| 2026-05-09 01:27 | 14.58792 | -90.52810 | 4947 ft | 2 kts | 22° |
| 2026-05-09 01:27 | 14.58810 | -90.52793 | 4947 ft | 4 kts | 52° |
| 2026-05-09 01:27 | 14.58816 | -90.52784 | 4947 ft | 5 kts | 63° |
| 2026-05-09 01:28 | 14.58818 | -90.52752 | 4947 ft | 2 kts | 101° |
| 2026-05-09 01:28 | 14.58805 | -90.52730 | 4946 ft | 2 kts | 128° |
| 2026-05-09 01:28 | 14.58791 | -90.52709 | 4946 ft | 2 kts | 117° |
| 2026-05-09 01:28 | 14.58788 | -90.52691 | 4946 ft | 4 kts | 96° |
| 2026-05-09 01:29 | 14.58790 | -90.52680 | 4948 ft | 0 kts | 79° |
| 2026-05-09 01:29 | 14.58791 | -90.52675 | 4946 ft | 0 kts | 74° |
| 2026-05-09 01:29 | 14.58792 | -90.52676 | 4946 ft | 0 kts | 45° |
| 2026-05-09 01:31 | 14.58797 | -90.52670 | 4946 ft | 0 kts | 49° |
| 2026-05-09 01:31 | 14.58811 | -90.52661 | 4947 ft | 9 kts | 22° |
| 2026-05-09 01:31 | 14.58827 | -90.52656 | 4948 ft | 0 kts | 15° |
| 2026-05-09 01:32 | 14.58837 | -90.52653 | 4948 ft | 5 kts | 15° |
| 2026-05-09 01:32 | 14.58891 | -90.52636 | 4950 ft | 12 kts | 17° |
| 2026-05-09 01:32 | 14.58934 | -90.52623 | 4951 ft | 0 kts | 17° |
| 2026-05-09 01:33 | 14.58940 | -90.52621 | 4952 ft | 5 kts | 16° |
| 2026-05-09 01:33 | 14.59015 | -90.52603 | 4955 ft | 15 kts | 15° |
| 2026-05-09 01:33 | 14.59054 | -90.52590 | 4958 ft | 0 kts | 17° |
| 2026-05-09 01:34 | 14.59107 | -90.52572 | 4959 ft | 11 kts | 20° |
| 2026-05-09 01:34 | 14.59145 | -90.52557 | 4960 ft | 2 kts | 20° |
| 2026-05-09 01:34 | 14.59166 | -90.52550 | 4961 ft | 6 kts | 17° |
| 2026-05-09 01:34 | 14.59214 | -90.52534 | 4964 ft | 7 kts | 20° |
| 2026-05-09 01:35 | 14.59275 | -90.52514 | 4965 ft | 11 kts | 18° |
| 2026-05-09 01:35 | 14.59343 | -90.52490 | 4967 ft | 10 kts | 20° |
| 2026-05-09 01:35 | 14.59408 | -90.52469 | 4971 ft | 12 kts | 17° |
| 2026-05-09 01:35 | 14.59498 | -90.52441 | 4973 ft | 14 kts | 16° |
| 2026-05-09 01:36 | 14.59532 | -90.52429 | 4976 ft | 0 kts | 17° |
| 2026-05-09 01:49 | 14.59541 | -90.52426 | 4970 ft | 4 kts | 17° |
| 2026-05-09 01:49 | 14.59589 | -90.52405 | 4968 ft | 4 kts | 27° |
| 2026-05-09 01:49 | 14.59597 | -90.52398 | 4970 ft | 1 kts | 43° |
| 2026-05-09 01:50 | 14.59607 | -90.52382 | 4969 ft | 7 kts | 65° |
| 2026-05-09 01:50 | 14.59606 | -90.52356 | 4970 ft | 0 kts | 157° |
| 2026-05-09 01:52 | 14.59601 | -90.52354 | 4970 ft | 2 kts | 155° |
| 2026-05-09 01:52 | 14.59597 | -90.52352 | 4971 ft | 0 kts | 157° |
| 2026-05-09 01:53 | 14.59595 | -90.52351 | 4971 ft | 2 kts | 156° |
| 2026-05-09 01:53 | 14.59578 | -90.52347 | 4972 ft | 0 kts | 174° |
| 2026-05-09 01:54 | 14.59572 | -90.52347 | 4967 ft | 7 kts | 176° |
| 2026-05-09 01:54 | 14.59366 | -90.52406 | 4966 ft | 57 kts | 197° |
| 2026-05-09 01:54 | 14.58828 | -90.52585 | 4942 ft | 102 kts | 198° |
| 2026-05-09 01:54 | 14.58028 | -90.52844 | 4922 ft | 137 kts | 199° |
| 2026-05-09 01:55 | 14.57018 | -90.53142 | 4954 ft | 169 kts | 202° |
| 2026-05-09 01:55 | 14.55800 | -90.53436 | 5370 ft | 183 kts | 184° |
| 2026-05-09 01:55 | 14.54497 | -90.53289 | 5645 ft | 199 kts | 166° |
| 2026-05-09 01:55 | 14.53127 | -90.52783 | 5852 ft | 212 kts | 154° |
| 2026-05-09 01:56 | 14.51803 | -90.52078 | 6371 ft | 215 kts | 155° |
| 2026-05-09 01:56 | 14.50394 | -90.51591 | 6718 ft | 221 kts | 167° |
| 2026-05-09 01:56 | 14.48834 | -90.51343 | 6850 ft | 236 kts | 172° |
| 2026-05-09 01:56 | 14.47147 | -90.51126 | 7207 ft | 252 kts | 170° |
| 2026-05-09 01:57 | 14.45355 | -90.50845 | 7601 ft | 269 kts | 168° |
| 2026-05-09 01:57 | 14.43455 | -90.50522 | 8028 ft | 282 kts | 169° |
| 2026-05-09 01:57 | 14.41489 | -90.50203 | 8642 ft | 289 kts | 169° |
| 2026-05-09 01:57 | 14.39481 | -90.49883 | 9290 ft | 294 kts | 169° |
| 2026-05-09 01:58 | 14.37444 | -90.49556 | 9971 ft | 298 kts | 169° |
| 2026-05-09 01:58 | 14.35369 | -90.49219 | 10487 ft | 307 kts | 169° |
| 2026-05-09 01:58 | 14.33215 | -90.48870 | 10869 ft | 320 kts | 169° |
| 2026-05-09 01:58 | 14.30963 | -90.48506 | 11212 ft | 333 kts | 169° |
| 2026-05-09 01:59 | 14.28648 | -90.48135 | 11716 ft | 340 kts | 169° |
| 2026-05-09 01:59 | 14.26286 | -90.47755 | 12279 ft | 345 kts | 169° |
| 2026-05-09 01:59 | 14.23904 | -90.47370 | 12867 ft | 349 kts | 170° |
| 2026-05-09 01:59 | 14.21489 | -90.46981 | 13434 ft | 352 kts | 169° |
| 2026-05-09 02:00 | 14.19057 | -90.46589 | 14082 ft | 355 kts | 169° |
| 2026-05-09 02:00 | 14.16600 | -90.46193 | 14552 ft | 359 kts | 170° |
| 2026-05-09 02:00 | 14.14191 | -90.45572 | 15126 ft | 360 kts | 154° |
| 2026-05-09 02:00 | 14.12107 | -90.44150 | 15666 ft | 361 kts | 135° |
| 2026-05-09 02:01 | 14.10624 | -90.42074 | 16194 ft | 363 kts | 115° |
| 2026-05-09 02:01 | 14.09925 | -90.39592 | 16709 ft | 366 kts | 95° |
| 2026-05-09 02:01 | 14.10105 | -90.37006 | 17225 ft | 369 kts | 75° |
| 2026-05-09 02:01 | 14.11191 | -90.34574 | 17766 ft | 372 kts | 54° |
| 2026-05-09 02:02 | 14.13017 | -90.32726 | 18268 ft | 376 kts | 34° |
| 2026-05-09 02:02 | 14.15446 | -90.31640 | 18716 ft | 380 kts | 13° |
| 2026-05-09 02:02 | 14.18052 | -90.31323 | 19128 ft | 384 kts | 7° |
| 2026-05-09 02:02 | 14.20720 | -90.31034 | 19537 ft | 387 kts | 7° |
| 2026-05-09 02:03 | 14.23409 | -90.30730 | 19997 ft | 391 kts | 8° |
| 2026-05-09 02:03 | 14.26126 | -90.30429 | 20419 ft | 394 kts | 7° |
| 2026-05-09 02:03 | 14.28858 | -90.30131 | 20822 ft | 397 kts | 8° |
| 2026-05-09 02:03 | 14.31628 | -90.29830 | 21231 ft | 401 kts | 7° |
| 2026-05-09 02:04 | 14.34414 | -90.29532 | 21635 ft | 403 kts | 8° |
| 2026-05-09 02:04 | 14.37218 | -90.29233 | 22051 ft | 407 kts | 7° |
| 2026-05-09 02:04 | 14.40030 | -90.28938 | 22455 ft | 409 kts | 8° |
| 2026-05-09 02:04 | 14.42888 | -90.28642 | 22856 ft | 413 kts | 7° |
| 2026-05-09 02:05 | 14.45754 | -90.28352 | 23261 ft | 416 kts | 7° |
| 2026-05-09 02:05 | 14.48650 | -90.28068 | 23662 ft | 419 kts | 7° |
| 2026-05-09 02:05 | 14.51568 | -90.27828 | 23979 ft | 422 kts | 3° |
| 2026-05-09 02:05 | 14.54477 | -90.27917 | 24307 ft | 424 kts | 7° |
| 2026-05-09 02:06 | 14.57326 | -90.27110 | 24664 ft | 420 kts | 31° |
| 2026-05-09 02:06 | 14.59593 | -90.25250 | 25025 ft | 417 kts | 53° |
| 2026-05-09 02:06 | 14.60946 | -90.22685 | 25378 ft | 413 kts | 76° |
| 2026-05-09 02:07 | 14.60339 | -90.16962 | 26073 ft | 412 kts | 121° |
| 2026-05-09 02:07 | 14.58620 | -90.14602 | 26395 ft | 414 kts | 131° |
| 2026-05-09 02:07 | 14.56657 | -90.12400 | 26709 ft | 418 kts | 133° |
| 2026-05-09 02:07 | 14.54722 | -90.10147 | 27048 ft | 420 kts | 129° |
| 2026-05-09 02:08 | 14.52921 | -90.07761 | 27400 ft | 422 kts | 126° |
| 2026-05-09 02:08 | 14.51300 | -90.05226 | 27741 ft | 425 kts | 121° |
| 2026-05-09 02:08 | 14.49883 | -90.02540 | 28085 ft | 428 kts | 116° |
| 2026-05-09 02:08 | 14.48705 | -89.99707 | 28407 ft | 431 kts | 110° |
| 2026-05-09 02:09 | 14.47898 | -89.96719 | 28709 ft | 434 kts | 101° |
| 2026-05-09 02:09 | 14.47474 | -89.93625 | 29028 ft | 437 kts | 96° |
| 2026-05-09 02:09 | 14.47190 | -89.90492 | 29348 ft | 440 kts | 96° |
| 2026-05-09 02:09 | 14.46818 | -89.87347 | 29663 ft | 442 kts | 100° |
| 2026-05-09 02:10 | 14.46242 | -89.84226 | 30044 ft | 443 kts | 102° |
| 2026-05-09 02:10 | 14.45656 | -89.81106 | 30433 ft | 442 kts | 100° |
| 2026-05-09 02:10 | 14.45177 | -89.77979 | 30819 ft | 442 kts | 98° |
| 2026-05-09 02:10 | 14.44735 | -89.74839 | 31220 ft | 441 kts | 99° |
| 2026-05-09 02:11 | 14.44236 | -89.71730 | 31611 ft | 440 kts | 100° |
| 2026-05-09 02:11 | 14.43704 | -89.68619 | 31982 ft | 439 kts | 100° |
| 2026-05-09 02:11 | 14.43201 | -89.65518 | 32383 ft | 439 kts | 99° |
| 2026-05-09 02:11 | 14.42720 | -89.62412 | 32801 ft | 438 kts | 99° |
| 2026-05-09 02:12 | 14.42229 | -89.59320 | 33038 ft | 436 kts | 99° |
| 2026-05-09 02:12 | 14.41234 | -89.53222 | 33030 ft | 432 kts | 99° |
| 2026-05-09 02:13 | 14.40258 | -89.47119 | 33028 ft | 430 kts | 99° |
| 2026-05-09 02:13 | 14.39273 | -89.41041 | 33029 ft | 429 kts | 99° |
| 2026-05-09 02:14 | 14.38292 | -89.34962 | 33025 ft | 429 kts | 99° |
| 2026-05-09 02:14 | 14.37306 | -89.28884 | 33017 ft | 430 kts | 100° |
| 2026-05-09 02:15 | 14.36321 | -89.22811 | 33023 ft | 429 kts | 99° |
| 2026-05-09 02:15 | 14.35333 | -89.16730 | 33007 ft | 429 kts | 99° |
| 2026-05-09 02:16 | 14.34343 | -89.10663 | 33007 ft | 430 kts | 99° |
| 2026-05-09 02:16 | 14.33350 | -89.04585 | 33000 ft | 428 kts | 99° |
| 2026-05-09 02:17 | 14.32356 | -88.98512 | 32995 ft | 429 kts | 99° |
| 2026-05-09 02:17 | 14.31368 | -88.92487 | 32992 ft | 429 kts | 99° |
| 2026-05-09 02:18 | 14.30370 | -88.86410 | 32990 ft | 429 kts | 99° |
| 2026-05-09 02:18 | 14.29366 | -88.80331 | 32997 ft | 431 kts | 99° |
| 2026-05-09 02:19 | 14.28369 | -88.74272 | 32988 ft | 428 kts | 99° |
| 2026-05-09 02:19 | 14.27377 | -88.68239 | 32987 ft | 425 kts | 99° |
| 2026-05-09 02:20 | 14.26379 | -88.62260 | 32976 ft | 421 kts | 102° |
| 2026-05-09 02:20 | 14.25496 | -88.59400 | 33009 ft | 420 kts | 114° |
| 2026-05-09 02:20 | 14.24265 | -88.56674 | 32995 ft | 419 kts | 115° |
| 2026-05-09 02:21 | 14.21753 | -88.51284 | 32990 ft | 416 kts | 115° |
| 2026-05-09 02:21 | 14.19290 | -88.45897 | 32966 ft | 414 kts | 115° |
| 2026-05-09 02:22 | 14.16820 | -88.40551 | 32961 ft | 412 kts | 115° |
| 2026-05-09 02:22 | 14.14367 | -88.35223 | 32948 ft | 410 kts | 115° |
| 2026-05-09 02:22 | 14.13137 | -88.32547 | 32599 ft | 418 kts | 115° |
| 2026-05-09 02:23 | 14.11862 | -88.29789 | 32007 ft | 433 kts | 115° |
| 2026-05-09 02:23 | 14.10565 | -88.26982 | 31419 ft | 446 kts | 115° |
| 2026-05-09 02:23 | 14.09214 | -88.24054 | 30802 ft | 459 kts | 115° |
| 2026-05-09 02:23 | 14.07807 | -88.21005 | 30173 ft | 471 kts | 115° |
| 2026-05-09 02:24 | 14.06422 | -88.18006 | 29473 ft | 467 kts | 115° |
| 2026-05-09 02:24 | 14.05033 | -88.15004 | 28849 ft | 461 kts | 115° |
| 2026-05-09 02:24 | 14.03663 | -88.12041 | 28235 ft | 456 kts | 115° |
| 2026-05-09 02:24 | 14.02308 | -88.09112 | 27625 ft | 451 kts | 115° |
| 2026-05-09 02:25 | 14.00958 | -88.06218 | 27018 ft | 445 kts | 115° |
| 2026-05-09 02:25 | 13.99630 | -88.03362 | 26424 ft | 440 kts | 115° |
| 2026-05-09 02:25 | 13.98328 | -88.00532 | 25844 ft | 435 kts | 115° |
| 2026-05-09 02:25 | 13.97044 | -87.97724 | 25265 ft | 431 kts | 115° |
| 2026-05-09 02:26 | 13.95743 | -87.94919 | 24685 ft | 427 kts | 115° |
| 2026-05-09 02:26 | 13.94480 | -87.92212 | 24125 ft | 423 kts | 115° |
| 2026-05-09 02:26 | 13.93259 | -87.89583 | 23588 ft | 420 kts | 115° |
| 2026-05-09 02:26 | 13.91972 | -87.86799 | 22967 ft | 414 kts | 115° |
| 2026-05-09 02:27 | 13.90740 | -87.84139 | 22394 ft | 409 kts | 115° |
| 2026-05-09 02:27 | 13.89518 | -87.81512 | 21843 ft | 404 kts | 115° |
| 2026-05-09 02:27 | 13.88312 | -87.78917 | 21313 ft | 400 kts | 115° |
| 2026-05-09 02:27 | 13.87353 | -87.76267 | 20781 ft | 394 kts | 101° |
| 2026-05-09 02:28 | 13.87160 | -87.73484 | 20320 ft | 388 kts | 85° |
| 2026-05-09 02:28 | 13.87682 | -87.70781 | 19830 ft | 384 kts | 73° |
| 2026-05-09 02:28 | 13.88500 | -87.68185 | 19333 ft | 381 kts | 71° |
| 2026-05-09 02:28 | 13.89349 | -87.65608 | 18829 ft | 378 kts | 71° |
| 2026-05-09 02:29 | 13.90173 | -87.63049 | 18334 ft | 376 kts | 71° |
| 2026-05-09 02:29 | 13.90976 | -87.60488 | 17789 ft | 374 kts | 71° |
| 2026-05-09 02:29 | 13.91776 | -87.57954 | 17269 ft | 371 kts | 71° |
| 2026-05-09 02:29 | 13.92578 | -87.55443 | 16810 ft | 367 kts | 71° |
| 2026-05-09 02:30 | 13.93368 | -87.52968 | 16345 ft | 363 kts | 71° |
| 2026-05-09 02:30 | 13.94149 | -87.50509 | 15868 ft | 360 kts | 72° |
| 2026-05-09 02:30 | 13.94921 | -87.48070 | 15402 ft | 356 kts | 72° |
| 2026-05-09 02:30 | 13.95687 | -87.45655 | 14937 ft | 354 kts | 72° |
| 2026-05-09 02:31 | 13.96448 | -87.43258 | 14479 ft | 351 kts | 72° |
| 2026-05-09 02:31 | 13.97204 | -87.40879 | 14023 ft | 348 kts | 72° |
| 2026-05-09 02:31 | 13.97943 | -87.38546 | 13556 ft | 346 kts | 72° |
| 2026-05-09 02:31 | 13.98684 | -87.36204 | 13101 ft | 342 kts | 72° |
| 2026-05-09 02:32 | 13.99416 | -87.33895 | 12652 ft | 338 kts | 72° |
| 2026-05-09 02:32 | 14.00142 | -87.31603 | 12214 ft | 334 kts | 71° |
| 2026-05-09 02:32 | 14.00858 | -87.29341 | 11770 ft | 331 kts | 71° |
| 2026-05-09 02:32 | 14.01693 | -87.27164 | 10996 ft | 319 kts | 53° |
| 2026-05-09 02:33 | 14.03260 | -87.25749 | 10580 ft | 288 kts | 23° |
| 2026-05-09 02:33 | 14.05144 | -87.25283 | 10211 ft | 279 kts | 0° |
| 2026-05-09 02:33 | 14.07050 | -87.25654 | 9822 ft | 282 kts | 336° |
| 2026-05-09 02:33 | 14.08757 | -87.26681 | 9418 ft | 286 kts | 327° |
| 2026-05-09 02:34 | 14.10406 | -87.27834 | 9036 ft | 287 kts | 328° |
| 2026-05-09 02:34 | 14.12084 | -87.28967 | 8657 ft | 289 kts | 329° |
| 2026-05-09 02:34 | 14.13789 | -87.30069 | 8271 ft | 290 kts | 329° |
| 2026-05-09 02:34 | 14.15465 | -87.31233 | 7895 ft | 290 kts | 317° |
| 2026-05-09 02:35 | 14.16458 | -87.32922 | 7546 ft | 273 kts | 280° |
| 2026-05-09 02:35 | 14.16339 | -87.34749 | 7319 ft | 247 kts | 241° |
| 2026-05-09 02:35 | 14.15292 | -87.35930 | 7200 ft | 208 kts | 199° |
| 2026-05-09 02:35 | 14.13974 | -87.35987 | 7121 ft | 184 kts | 154° |
| 2026-05-09 02:36 | 14.13051 | -87.35212 | 6969 ft | 162 kts | 140° |
| 2026-05-09 02:36 | 14.12259 | -87.34483 | 6827 ft | 145 kts | 138° |
| 2026-05-09 02:36 | 14.11769 | -87.34020 | 6764 ft | 148 kts | 135° |
| 2026-05-09 02:36 | 14.10993 | -87.33261 | 6556 ft | 156 kts | 134° |
| 2026-05-09 02:37 | 14.10187 | -87.32581 | 6322 ft | 144 kts | 149° |
| 2026-05-09 02:37 | 14.09336 | -87.32166 | 6085 ft | 127 kts | 139° |
| 2026-05-09 02:37 | 14.08604 | -87.31601 | 5923 ft | 138 kts | 136° |
| 2026-05-09 02:37 | 14.07939 | -87.30865 | 5695 ft | 140 kts | 127° |
| 2026-05-09 02:38 | 14.07423 | -87.30039 | 5511 ft | 136 kts | 118° |
| 2026-05-09 02:38 | 14.07037 | -87.29322 | 5376 ft | 134 kts | 120° |
| 2026-05-09 02:38 | 14.06542 | -87.28540 | 5289 ft | 121 kts | 124° |
| 2026-05-09 02:38 | 14.06069 | -87.27850 | 5104 ft | 114 kts | 123° |
| 2026-05-09 02:39 | 14.05590 | -87.27127 | 4787 ft | 125 kts | 122° |
| 2026-05-09 02:39 | 14.05123 | -87.26370 | 4722 ft | 127 kts | 123° |
| 2026-05-09 02:39 | 14.04639 | -87.25569 | 4546 ft | 135 kts | 122° |
| 2026-05-09 02:39 | 14.04133 | -87.24762 | 4441 ft | 134 kts | 123° |
| 2026-05-09 02:40 | 14.03837 | -87.23863 | 4301 ft | 137 kts | 94° |
| 2026-05-09 02:40 | 14.04063 | -87.22901 | 4058 ft | 141 kts | 65° |
| 2026-05-09 02:40 | 14.04711 | -87.22186 | 3574 ft | 146 kts | 22° |
| 2026-05-09 02:40 | 14.05707 | -87.21863 | 3303 ft | 145 kts | 27° |
| 2026-05-09 02:41 | 14.06583 | -87.21542 | 3259 ft | 125 kts | 20° |
| 2026-05-09 02:41 | 14.06031 | -87.21747 | 3273 ft | 2 kts | 23° |
| 2026-05-09 02:41 | 14.06088 | -87.21728 | 3272 ft | 13 kts | 14° |
| 2026-05-09 02:41 | 14.06180 | -87.21720 | 3267 ft | 11 kts | 331° |
| 2026-05-09 02:42 | 14.06184 | -87.21758 | 3266 ft | 4 kts | 235° |
| 2026-05-09 02:42 | 14.06131 | -87.21793 | 3267 ft | 12 kts | 198° |
| 2026-05-09 02:42 | 14.06072 | -87.21812 | 3270 ft | 5 kts | 206° |
| 2026-05-09 02:42 | 14.06047 | -87.21823 | 3270 ft | 4 kts | 201° |
| 2026-05-09 02:43 | 14.06004 | -87.21837 | 3278 ft | 9 kts | 197° |
| 2026-05-09 02:43 | 14.05985 | -87.21849 | 3278 ft | 1 kts | 225° |
| 2026-05-09 02:43 | 14.05974 | -87.21864 | 3278 ft | 2 kts | 243° |
| 2026-05-09 02:43 | 14.05972 | -87.21871 | 3276 ft | 0 kts | 259° |
| 2026-05-09 02:44 | 14.05974 | -87.21875 | 3276 ft | 2 kts | 281° |
| 2026-05-09 02:44 | 14.05974 | -87.21878 | 3277 ft | 0 kts | 281° |